Aeroporto :
LOGIN :

Iscrizione | Disclaimer

   EN    FR    IT 

 










Sommario :    VFR   VFR Marginale   IFR   IFR Intensivo   IFR Molto Intensivo
Visibilità : 
Base nubi : 
>= 8 km
>= 3000ft
5 / 8 km
1000 / 3000 ft
1500m / 5 km
500 / 1000 ft
800 / 1500m
200 / 500 ft
< 800m
< 200 ft
Simboli :   Temporali  Nebbia  Neve Forte  Precipitazioni Forti  Vento > 20 kt
SIGMETs :   Varie  Temporali  Ghiacco  Turbolenza  Onda orograficha  Ceneri Vulcaniche







- Altitudine del aeroporto : 1470 ft
- Codice IATA : KLU


LOWK - Klagenfurt

ULTIMO METAR :
  • 241350Z 19004KT 160V230 9999 FEW030 SCT050 FEW050CB BKN110 23/18 Q1022 NOSIG

METARs OBSOLETI :
  • 241320Z 19003KT 130V270 9999 VCTS SCT030 SCT050 FEW050CB BKN200 23/18 Q1022 TEMPO TS
  • 241250Z VRB02KT 9999 VCTS FEW015 SCT030 BKN050 FEW050CB 24/18 Q1022 TEMPO TS
  • 241220Z VRB02KT 9999 FEW009 SCT026 FEW050CB BKN300 24/18 Q1022 NOSIG
  • 241150Z VRB02KT 9999 FEW009 SCT029 FEW050CB BKN300 23/18 Q1022 NOSIG
  • 241120Z VRB03KT 9999 SCT009 SCT030 FEW050CB BKN300 22/18 Q1023 NOSIG

TAF TAF LOWK
Valido dal 24 a 12 ore il 25 a 12 ore UTC


241115Z 2412/2512 VRB02KT 9999 SCT040 SCT080 TX24/2512Z TN18/2504Z
TEMPO 2412/2419 10006KT 8000 -TSRA SCT010 BKN040 FEW045CB
PROB30
TEMPO 2414/2418 4000 TSRA BKN008 SCT040CB
TEMPO 2421/2507 5000 MIFG BR SCT002 BKN008
TEMPO 2510/2512 -TSRA SCT010 BKN040 FEW040CB
Nessun NOTAM noto per questo aeroporto.



MetMap, La meteo Aeronautica in un colpo d'occhio ! - Copyright ORBIFLY Dicembre 2007 - Disclaimer

ORBIFLY MET'MAP TEAM :

Programmazione e sviluppo : Alexandra Zaïnal
Concezione e sviluppo : Baudouin d'Aumeries
Co-Programmazione e sviluppo : Marc-Olivier Méhu
Supporto tecnico e logistico : Manuel Goepfert
Aiuto per la traduzione : Arnaldo La Scala

Contatto : metmap@orbifly.com




FONTI E CREDITI :

   NOAA